Time;durP1;ratioP1;P1;durP2;ratioP2;P2;SDS_P1;SDS_P2;PMS_P1;PMS_P2;Temp;Humidity;BMP_temperature;BMP_pressure;BME280_temperature;BME280_humidity;BME280_pressure;Samples;Min_cycle;Max_cycle;Signal;HPM_P1;HPM_P2
2022/03/05 00:01:26;;;;;;;13.30;6.28;;;-0.20;99.90;;;;;;5016263;28;20473;-81
2022/03/05 00:03:52;;;;;;;14.38;6.90;;;-0.20;99.90;;;;;;5016172;28;20033;-81
2022/03/05 00:06:17;;;;;;;11.07;5.25;;;-0.20;99.90;;;;;;5016045;28;20087;-81
2022/03/05 00:08:43;;;;;;;11.20;5.57;;;-0.30;99.90;;;;;;5016366;28;20029;-81
2022/03/05 00:11:08;;;;;;;10.45;5.70;;;-0.30;99.90;;;;;;5015768;28;20045;-81
2022/03/05 00:13:36;;;;;;;9.68;5.90;;;-0.20;99.90;;;;;;5015834;28;20078;-81
2022/03/05 00:16:03;;;;;;;11.27;5.30;;;-0.20;99.90;;;;;;5015897;28;20046;-81
2022/03/05 00:18:28;;;;;;;12.38;5.90;;;-0.30;99.90;;;;;;5016131;28;20099;-81
2022/03/05 00:20:54;;;;;;;10.27;5.43;;;-0.30;99.90;;;;;;5015866;28;20496;-81
2022/03/05 00:23:20;;;;;;;10.50;5.90;;;-0.30;99.90;;;;;;5015680;28;20120;-81
2022/03/05 00:25:46;;;;;;;11.50;5.43;;;-0.30;99.90;;;;;;5015766;28;20049;-81
2022/03/05 00:28:12;;;;;;;11.80;6.20;;;-0.30;99.90;;;;;;5015875;28;20120;-81
2022/03/05 00:30:38;;;;;;;10.10;5.50;;;-0.30;99.90;;;;;;5015614;28;20439;-81
2022/03/05 00:33:04;;;;;;;13.10;6.75;;;-0.30;99.90;;;;;;5015786;28;20404;-81
2022/03/05 00:35:30;;;;;;;10.88;6.20;;;-0.30;99.90;;;;;;5016851;28;20124;-81
2022/03/05 00:37:56;;;;;;;12.65;5.57;;;-0.30;99.90;;;;;;5019486;28;20139;-81
2022/03/05 00:40:22;;;;;;;12.85;6.15;;;-0.30;99.90;;;;;;5019770;28;20477;-81
2022/03/05 00:42:47;;;;;;;10.88;6.80;;;-0.30;99.90;;;;;;5019542;28;20056;-81
2022/03/05 00:45:14;;;;;;;13.07;6.25;;;-0.40;99.90;;;;;;5019558;28;20041;-81
2022/03/05 00:47:40;;;;;;;9.27;5.43;;;-0.40;99.90;;;;;;5019443;28;20049;-81
2022/03/05 00:50:06;;;;;;;13.15;6.80;;;-0.40;99.90;;;;;;5019644;28;20041;-81
2022/03/05 00:52:33;;;;;;;12.45;6.30;;;-0.30;99.90;;;;;;5019219;28;20045;-81
2022/03/05 00:54:59;;;;;;;10.15;5.95;;;-0.30;99.90;;;;;;5019464;28;20546;-81
2022/03/05 00:57:24;;;;;;;10.43;5.97;;;-0.40;99.90;;;;;;5019247;28;20136;-81
2022/03/05 00:59:50;;;;;;;11.35;6.15;;;-0.40;99.90;;;;;;5019264;28;20045;-81
2022/03/05 01:02:16;;;;;;;9.93;5.50;;;-0.40;99.90;;;;;;5019535;28;20056;-81
2022/03/05 01:04:42;;;;;;;11.32;6.13;;;-0.40;99.90;;;;;;5036939;28;20485;-81
2022/03/05 01:07:07;;;;;;;11.32;5.97;;;-0.40;99.90;;;;;;5019670;28;20123;-81
2022/03/05 01:09:33;;;;;;;12.23;6.10;;;-0.40;99.90;;;;;;5018981;28;20041;-81
2022/03/05 01:11:59;;;;;;;11.77;6.60;;;-0.40;99.90;;;;;;5018939;28;20051;-81
2022/03/05 01:14:24;;;;;;;12.80;6.20;;;-0.40;99.90;;;;;;5018911;28;20041;-81
2022/03/05 01:16:50;;;;;;;10.68;6.25;;;-0.40;99.90;;;;;;5019233;28;20041;-80
2022/03/05 01:19:16;;;;;;;11.57;6.05;;;-0.40;99.90;;;;;;5018963;28;20467;-81
2022/03/05 01:21:41;;;;;;;11.43;6.38;;;-0.40;99.90;;;;;;5018705;28;20038;-81
2022/03/05 01:24:07;;;;;;;13.05;6.15;;;-0.40;99.90;;;;;;5018722;28;20041;-81
2022/03/05 01:26:33;;;;;;;12.88;6.13;;;-0.40;99.90;;;;;;5018864;28;20052;-81
2022/03/05 01:28:58;;;;;;;15.02;6.45;;;-0.50;99.90;;;;;;5018502;28;20045;-81
2022/03/05 01:31:24;;;;;;;11.18;6.95;;;-0.50;99.90;;;;;;5018648;28;20083;-81
2022/03/05 01:33:50;;;;;;;13.50;6.50;;;-0.50;99.90;;;;;;5018899;28;20545;-81
2022/03/05 01:36:15;;;;;;;13.20;6.03;;;-0.50;99.90;;;;;;5018521;28;20092;-81
2022/03/05 01:38:41;;;;;;;11.98;6.80;;;-0.50;99.90;;;;;;5018642;28;20041;-81
2022/03/05 01:41:07;;;;;;;12.32;6.55;;;-0.50;99.90;;;;;;5018442;28;20045;-81
2022/03/05 01:43:32;;;;;;;11.48;5.95;;;-0.50;99.90;;;;;;5018571;28;20042;-81
2022/03/05 01:45:58;;;;;;;12.43;7.20;;;-0.60;99.90;;;;;;5017782;28;20477;-81
2022/03/05 01:48:24;;;;;;;12.80;6.95;;;-0.50;99.90;;;;;;5018685;28;20049;-81
2022/03/05 01:50:49;;;;;;;11.30;6.82;;;-0.60;99.90;;;;;;5018095;28;20467;-81
2022/03/05 01:53:15;;;;;;;13.18;6.25;;;-0.60;99.90;;;;;;5018412;28;20056;-81
2022/03/05 01:55:42;;;;;;;11.02;5.90;;;-0.60;99.90;;;;;;5018033;28;20080;-81
2022/03/05 01:58:08;;;;;;;17.25;6.85;;;-0.60;99.90;;;;;;5018085;28;20504;-81
2022/03/05 02:00:34;;;;;;;15.82;7.22;;;-0.60;99.90;;;;;;5018220;28;20049;-81
2022/03/05 02:02:59;;;;;;;13.05;6.43;;;-0.70;99.90;;;;;;5018117;28;20136;-81
2022/03/05 02:05:25;;;;;;;12.65;6.68;;;-0.70;99.90;;;;;;5017928;28;20051;-81
2022/03/05 02:07:51;;;;;;;12.60;6.32;;;-0.70;99.90;;;;;;5018205;28;20507;-81
2022/03/05 02:10:17;;;;;;;11.65;6.13;;;-0.70;99.90;;;;;;5018225;28;20424;-81
2022/03/05 02:12:42;;;;;;;12.23;6.80;;;-0.80;99.90;;;;;;5017870;28;20463;-81
2022/03/05 02:15:09;;;;;;;12.43;6.93;;;-0.80;99.90;;;;;;5017838;28;20077;-81
2022/03/05 02:17:35;;;;;;;13.00;7.97;;;-0.80;99.90;;;;;;5018074;28;20049;-81
2022/03/05 02:20:03;;;;;;;13.07;7.40;;;-0.80;99.90;;;;;;5017676;28;20049;-81
2022/03/05 02:22:29;;;;;;;12.02;6.95;;;-0.80;99.90;;;;;;5017696;28;20032;-81
2022/03/05 02:24:58;;;;;;;13.27;7.93;;;-0.80;99.90;;;;;;5017869;28;20459;-81
2022/03/05 02:27:25;;;;;;;13.05;7.35;;;-0.90;99.90;;;;;;5017641;28;20049;-81
2022/03/05 02:29:51;;;;;;;11.15;5.97;;;-0.90;99.90;;;;;;5017601;28;20405;-81
2022/03/05 02:32:17;;;;;;;13.10;6.55;;;-0.90;99.90;;;;;;5017604;28;20057;-80
2022/03/05 02:34:43;;;;;;;11.93;7.15;;;-0.90;99.90;;;;;;5017398;28;20491;-80
2022/03/05 02:37:15;;;;;;;14.25;7.45;;;-0.90;99.90;;;;;;5017222;28;20512;-80
2022/03/05 02:39:42;;;;;;;13.63;7.32;;;-1.00;99.90;;;;;;5017376;28;20049;-81
2022/03/05 02:42:08;;;;;;;11.55;7.65;;;-1.00;99.90;;;;;;5017317;28;20048;-81
2022/03/05 02:44:34;;;;;;;15.70;7.97;;;-1.00;99.90;;;;;;5017527;28;20045;-81
2022/03/05 02:47:00;;;;;;;15.18;7.88;;;-1.00;99.90;;;;;;5017316;28;20052;-81
2022/03/05 02:49:25;;;;;;;14.02;7.63;;;-1.00;99.90;;;;;;5017374;28;20138;-81
2022/03/05 02:51:51;;;;;;;13.85;7.50;;;-1.00;99.90;;;;;;5017183;28;20057;-81
2022/03/05 02:54:17;;;;;;;12.77;7.15;;;-1.00;99.90;;;;;;5017258;28;20489;-81
2022/03/05 02:56:43;;;;;;;12.52;6.38;;;-1.00;99.90;;;;;;5017202;28;20057;-81
2022/03/05 02:59:09;;;;;;;12.07;7.03;;;-1.00;99.90;;;;;;5016497;28;20130;-81
2022/03/05 03:01:35;;;;;;;14.65;7.13;;;-1.00;99.90;;;;;;5017109;28;20485;-81
2022/03/05 03:04:00;;;;;;;13.90;7.32;;;-1.10;99.90;;;;;;5017104;28;20072;-81
2022/03/05 03:06:26;;;;;;;12.45;7.03;;;-1.10;99.90;;;;;;5017130;28;20041;-81
2022/03/05 03:08:52;;;;;;;12.45;7.25;;;-1.10;99.90;;;;;;5017095;28;20057;-81
2022/03/05 03:11:17;;;;;;;14.43;7.93;;;-1.10;99.90;;;;;;5017006;28;20083;-80
2022/03/05 03:13:43;;;;;;;14.10;7.60;;;-1.20;99.90;;;;;;5016566;28;20041;-80
2022/03/05 03:16:09;;;;;;;14.55;7.95;;;-1.10;99.90;;;;;;5017024;28;20041;-80
2022/03/05 03:18:35;;;;;;;14.80;7.13;;;-1.20;99.90;;;;;;5016642;28;20049;-80
2022/03/05 03:21:00;;;;;;;11.77;6.53;;;-1.20;99.90;;;;;;5016467;28;20057;-80
2022/03/05 03:23:26;;;;;;;12.05;7.05;;;-1.20;99.90;;;;;;5016708;28;20111;-80
2022/03/05 03:25:52;;;;;;;13.13;7.45;;;-1.20;99.90;;;;;;5016838;28;20068;-80
2022/03/05 03:28:18;;;;;;;13.80;7.45;;;-1.30;99.90;;;;;;5016475;28;20123;-80
2022/03/05 03:30:43;;;;;;;12.82;7.47;;;-1.30;99.90;;;;;;5016477;28;20069;-80
2022/03/05 03:33:09;;;;;;;18.05;6.30;;;-1.30;99.90;;;;;;5016388;28;20136;-81
2022/03/05 03:35:35;;;;;;;13.23;6.97;;;-1.40;99.90;;;;;;5016129;28;20038;-81
2022/03/05 03:38:01;;;;;;;14.80;7.40;;;-1.40;99.90;;;;;;5016717;28;20053;-81
2022/03/05 03:40:26;;;;;;;14.55;7.28;;;-1.40;99.90;;;;;;5016346;28;20037;-80
2022/03/05 03:42:52;;;;;;;12.98;6.60;;;-1.40;99.90;;;;;;5016326;28;20088;-80
2022/03/05 03:45:18;;;;;;;14.07;7.10;;;-1.40;99.90;;;;;;5016335;28;20187;-80
2022/03/05 03:47:47;;;;;;;14.77;7.35;;;-1.40;99.90;;;;;;5016350;28;20053;-81
2022/03/05 03:50:15;;;;;;;13.35;7.90;;;-1.40;99.90;;;;;;5016037;28;20054;-81
2022/03/05 03:52:40;;;;;;;13.07;7.25;;;-1.40;99.90;;;;;;5016133;28;20377;-81
2022/03/05 03:55:10;;;;;;;12.98;7.50;;;-1.40;99.90;;;;;;5016434;28;20099;-80
2022/03/05 03:57:37;;;;;;;13.10;6.55;;;-1.40;99.90;;;;;;5016120;28;20045;-80
2022/03/05 04:00:05;;;;;;;13.98;7.18;;;-1.40;99.90;;;;;;5015858;28;20048;-80
2022/03/05 04:02:30;;;;;;;13.18;6.70;;;-1.40;99.90;;;;;;5015954;28;20077;-81
2022/03/05 04:04:56;;;;;;;13.43;6.15;;;-1.40;99.90;;;;;;5016025;28;20078;-81
2022/03/05 04:10:06;;;;;;;11.60;6.63;;;-1.30;99.90;;;;;;5015747;28;20038;-81
2022/03/05 04:12:32;;;;;;;11.80;6.57;;;-1.30;99.90;;;;;;5015761;28;20408;-80
2022/03/05 04:14:58;;;;;;;11.30;6.78;;;-1.30;99.90;;;;;;5016074;28;20132;-81
2022/03/05 04:17:23;;;;;;;12.63;6.30;;;-1.20;99.90;;;;;;5016103;28;20440;-81
2022/03/05 04:19:49;;;;;;;12.10;6.55;;;-1.20;99.90;;;;;;5015741;28;20128;-80
2022/03/05 04:22:15;;;;;;;15.60;6.78;;;-1.20;99.90;;;;;;5015839;28;20385;-80
2022/03/05 04:24:41;;;;;;;12.20;6.47;;;-1.20;99.90;;;;;;5016036;28;20477;-80
2022/03/05 04:27:07;;;;;;;14.50;6.97;;;-1.20;99.90;;;;;;5015653;28;20081;-80
2022/03/05 04:29:33;;;;;;;13.73;6.20;;;-1.20;99.90;;;;;;5015616;28;20103;-80
2022/03/05 04:31:59;;;;;;;13.82;6.22;;;-1.20;99.90;;;;;;5015617;28;20128;-81
2022/03/05 04:34:25;;;;;;;11.88;6.13;;;-1.20;99.90;;;;;;5015715;28;20129;-81
2022/03/05 04:36:51;;;;;;;15.35;6.13;;;-1.20;99.90;;;;;;5015355;28;20140;-81
2022/03/05 04:39:16;;;;;;;12.35;5.85;;;-1.20;99.90;;;;;;5015663;28;20050;-81
2022/03/05 04:41:42;;;;;;;12.85;6.30;;;-1.20;99.90;;;;;;5015434;28;20091;-80
2022/03/05 04:44:08;;;;;;;12.02;5.80;;;-1.20;99.90;;;;;;5015644;28;20045;-80
2022/03/05 04:46:34;;;;;;;11.75;5.97;;;-1.20;99.90;;;;;;5016116;28;20468;-80
2022/03/05 04:48:59;;;;;;;11.02;5.88;;;-1.20;99.90;;;;;;5015810;28;20126;-81
2022/03/05 04:51:25;;;;;;;13.40;6.43;;;-1.20;99.90;;;;;;5015817;28;20041;-81
2022/03/05 04:53:51;;;;;;;9.35;5.00;;;-1.20;99.90;;;;;;5015463;28;20049;-81
2022/03/05 04:56:17;;;;;;;10.27;6.00;;;-1.20;99.90;;;;;;5016041;28;20444;-81
2022/03/05 04:58:43;;;;;;;12.45;5.57;;;-1.20;99.90;;;;;;5015606;28;20473;-81
2022/03/05 05:01:09;;;;;;;11.07;6.10;;;-1.20;99.90;;;;;;5015352;28;20088;-80
2022/03/05 05:03:34;;;;;;;11.35;5.72;;;-1.30;99.90;;;;;;5015638;28;20052;-81
2022/03/05 05:06:00;;;;;;;13.88;6.35;;;-1.30;99.90;;;;;;5015767;28;20116;-81
2022/03/05 05:08:26;;;;;;;10.48;5.63;;;-1.20;99.90;;;;;;5015386;28;20049;-80
2022/03/05 05:10:52;;;;;;;12.18;6.50;;;-1.20;99.90;;;;;;5015192;28;20111;-81
2022/03/05 05:13:17;;;;;;;10.05;5.70;;;-1.20;99.90;;;;;;5015228;28;20064;-81
2022/03/05 05:15:45;;;;;;;11.63;4.95;;;-1.20;99.90;;;;;;5015465;28;20049;-81
2022/03/05 05:18:11;;;;;;;15.52;6.72;;;-1.30;99.90;;;;;;5015355;28;20445;-81
2022/03/05 05:20:37;;;;;;;13.90;6.35;;;-1.30;99.90;;;;;;5015114;28;20137;-81
2022/03/05 05:23:03;;;;;;;12.35;6.43;;;-1.30;99.90;;;;;;5018817;28;20050;-81
2022/03/05 05:25:28;;;;;;;13.38;6.30;;;-1.20;99.90;;;;;;5018938;28;20045;-80
2022/03/05 05:27:54;;;;;;;12.38;7.00;;;-1.20;99.90;;;;;;5018588;28;20397;-80
2022/03/05 05:30:20;;;;;;;12.57;6.60;;;-1.20;99.90;;;;;;5018689;28;20045;-81
2022/03/05 05:32:45;;;;;;;13.02;6.72;;;-1.20;99.90;;;;;;5018574;28;20046;-80
2022/03/05 05:35:11;;;;;;;12.95;6.72;;;-1.20;99.90;;;;;;5018718;28;20037;-81
2022/03/05 05:37:37;;;;;;;11.50;6.72;;;-1.20;99.90;;;;;;5017333;28;20063;-81
2022/03/05 05:40:03;;;;;;;12.23;7.00;;;-1.20;99.90;;;;;;5018466;28;20049;-81
2022/03/05 05:42:29;;;;;;;12.10;7.45;;;-1.20;99.90;;;;;;5018362;28;20041;-81
2022/03/05 05:44:54;;;;;;;13.23;7.40;;;-1.20;99.90;;;;;;5018469;28;20091;-80
2022/03/05 05:47:20;;;;;;;12.27;6.57;;;-1.20;99.90;;;;;;5018491;28;20062;-80
2022/03/05 05:49:45;;;;;;;12.85;6.82;;;-1.20;99.90;;;;;;5018407;28;20076;-80
2022/03/05 05:52:11;;;;;;;11.75;6.55;;;-1.20;99.90;;;;;;5018301;28;20052;-80
2022/03/05 05:54:37;;;;;;;12.90;7.78;;;-1.20;99.90;;;;;;5018221;28;20104;-80
2022/03/05 05:57:03;;;;;;;14.15;7.22;;;-1.20;99.90;;;;;;5018423;28;20041;-80
2022/03/05 05:59:28;;;;;;;9.50;5.75;;;-1.20;99.90;;;;;;5018175;28;20119;-80
2022/03/05 06:01:54;;;;;;;13.82;6.43;;;-1.20;99.90;;;;;;5017950;28;20045;-80
2022/03/05 06:04:20;;;;;;;10.80;6.53;;;-1.20;99.90;;;;;;5017726;28;20041;-80
2022/03/05 06:06:45;;;;;;;11.45;6.38;;;-1.20;99.90;;;;;;5016753;28;20084;-80
2022/03/05 06:09:11;;;;;;;11.60;7.20;;;-1.10;99.90;;;;;;5017786;28;20153;-80
2022/03/05 06:11:37;;;;;;;15.40;7.18;;;-1.10;99.90;;;;;;5017931;28;20077;-80
2022/03/05 06:14:03;;;;;;;11.35;7.03;;;-1.10;99.90;;;;;;5017715;28;20045;-80
2022/03/05 06:16:28;;;;;;;11.35;7.30;;;-1.10;99.90;;;;;;5017560;28;20064;-80
2022/03/05 06:18:54;;;;;;;14.25;6.85;;;-1.10;99.90;;;;;;5017619;28;20085;-80
2022/03/05 06:21:20;;;;;;;13.20;7.18;;;-1.20;99.90;;;;;;5017479;28;20103;-80
2022/03/05 06:23:45;;;;;;;11.75;7.03;;;-1.10;99.90;;;;;;5017337;28;20090;-80
2022/03/05 06:26:11;;;;;;;15.63;6.93;;;-1.10;99.90;;;;;;5017516;28;20048;-80
2022/03/05 06:28:36;;;;;;;11.88;7.03;;;-1.10;99.90;;;;;;5017686;28;20123;-80
2022/03/05 06:31:04;;;;;;;12.23;6.95;;;-1.10;99.90;;;;;;5017307;28;20243;-80
2022/03/05 06:33:29;;;;;;;12.68;6.82;;;-1.10;99.90;;;;;;5017429;28;20084;-80
2022/03/05 06:35:55;;;;;;;12.85;7.45;;;-1.10;99.90;;;;;;5017497;28;20123;-80
2022/03/05 06:38:21;;;;;;;15.18;7.85;;;-1.00;99.90;;;;;;5017077;28;20057;-80
2022/03/05 06:40:47;;;;;;;13.48;7.55;;;-1.00;99.90;;;;;;5017192;28;20180;-80
2022/03/05 06:43:13;;;;;;;11.98;6.72;;;-1.00;99.90;;;;;;5017066;28;20045;-80
2022/03/05 06:45:38;;;;;;;13.15;6.78;;;-1.00;99.90;;;;;;5017121;28;20049;-80
2022/03/05 06:48:05;;;;;;;10.95;6.85;;;-1.00;99.90;;;;;;5017365;28;20052;-80
2022/03/05 06:50:31;;;;;;;11.80;7.47;;;-1.00;99.90;;;;;;5016889;28;20045;-80
2022/03/05 06:52:57;;;;;;;14.55;7.70;;;-0.90;99.90;;;;;;5016914;28;20046;-80
2022/03/05 06:55:23;;;;;;;15.80;7.60;;;-0.90;99.90;;;;;;5017100;28;20095;-80
2022/03/05 06:57:49;;;;;;;12.98;7.40;;;-0.80;99.90;;;;;;5016829;28;20056;-80
2022/03/05 07:00:15;;;;;;;11.73;7.07;;;-0.80;99.90;;;;;;5017141;28;20048;-79
2022/03/05 07:02:42;;;;;;;13.43;7.70;;;-0.70;99.90;;;;;;5016758;28;20081;-79
2022/03/05 07:05:09;;;;;;;10.93;7.10;;;-0.60;99.90;;;;;;5016645;28;20050;-80
2022/03/05 07:07:35;;;;;;;21.17;7.93;;;-0.60;99.90;;;;;;5016889;28;20042;-80
2022/03/05 07:10:02;;;;;;;14.63;8.57;;;-0.60;99.90;;;;;;5016634;28;20045;-80
2022/03/05 07:12:28;;;;;;;13.43;8.23;;;-0.50;99.90;;;;;;5016486;28;20107;-80
2022/03/05 07:14:54;;;;;;;12.07;7.80;;;-0.50;99.90;;;;;;5016561;28;20045;-86
2022/03/05 07:17:19;;;;;;;13.57;7.63;;;-0.40;99.90;;;;;;5016964;28;20049;-80
2022/03/05 07:19:45;;;;;;;16.58;8.32;;;-0.30;99.90;;;;;;5016400;28;20065;-81
2022/03/05 07:22:11;;;;;;;13.02;8.40;;;-0.20;99.90;;;;;;5016751;28;20096;-81
2022/03/05 07:24:37;;;;;;;12.70;8.32;;;-0.20;99.90;;;;;;5016730;28;20037;-80
2022/03/05 07:27:03;;;;;;;15.73;8.45;;;-0.10;99.90;;;;;;5016612;28;20042;-81
2022/03/05 07:29:29;;;;;;;12.88;8.20;;;0.00;99.90;;;;;;5016571;28;20077;-80
2022/03/05 07:31:55;;;;;;;11.25;7.22;;;0.00;99.90;;;;;;5016344;28;20487;-81
2022/03/05 07:34:21;;;;;;;16.52;9.25;;;0.10;99.90;;;;;;5016163;28;20045;-81
2022/03/05 07:36:46;;;;;;;15.02;8.63;;;0.20;99.90;;;;;;5016126;28;20045;-81
2022/03/05 07:39:12;;;;;;;12.52;8.00;;;0.30;99.90;;;;;;5016012;28;20049;-81
2022/03/05 07:41:38;;;;;;;13.82;8.70;;;0.30;99.90;;;;;;5016163;28;20508;-80
2022/03/05 07:44:05;;;;;;;12.80;8.75;;;0.40;99.90;;;;;;5015598;28;20049;-80
2022/03/05 07:46:32;;;;;;;13.98;8.00;;;0.50;99.90;;;;;;5016406;28;20061;-80
2022/03/05 07:48:58;;;;;;;12.60;7.82;;;0.50;99.90;;;;;;5016206;28;20050;-80
2022/03/05 07:51:26;;;;;;;11.63;7.10;;;0.60;99.90;;;;;;5016045;28;20048;-80
2022/03/05 07:53:51;;;;;;;13.25;8.55;;;0.70;99.90;;;;;;5016121;28;20408;-80
2022/03/05 07:56:18;;;;;;;13.90;7.75;;;0.70;99.90;;;;;;5016189;28;20469;-80
2022/03/05 07:58:43;;;;;;;13.57;8.25;;;0.90;99.90;;;;;;5016152;28;20485;-81
2022/03/05 08:01:09;;;;;;;12.40;8.20;;;0.90;99.90;;;;;;5015924;28;20040;-82
2022/03/05 08:03:35;;;;;;;14.77;7.53;;;1.00;99.90;;;;;;5016076;28;20045;-82
2022/03/05 08:06:00;;;;;;;11.73;8.05;;;1.10;99.90;;;;;;5015815;28;20464;-81
2022/03/05 08:08:26;;;;;;;14.98;7.70;;;1.20;99.90;;;;;;5015777;28;20042;-81
2022/03/05 08:10:52;;;;;;;15.40;8.80;;;1.20;99.90;;;;;;5015708;28;20128;-81
2022/03/05 08:13:17;;;;;;;12.57;7.97;;;1.40;99.90;;;;;;5033401;28;20080;-82
2022/03/05 08:15:43;;;;;;;12.18;8.13;;;1.50;99.90;;;;;;4999064;28;20042;-81
2022/03/05 08:18:09;;;;;;;15.25;8.68;;;1.60;99.90;;;;;;4983737;28;20077;-81
2022/03/05 08:20:35;;;;;;;13.23;7.10;;;1.70;99.90;;;;;;4976361;28;20468;-83
2022/03/05 08:23:00;;;;;;;14.73;8.70;;;1.80;99.90;;;;;;4977918;28;20050;-82
2022/03/05 08:25:27;;;;;;;13.70;7.25;;;1.90;99.90;;;;;;4995165;28;20100;-82
2022/03/05 08:27:53;;;;;;;13.82;7.53;;;2.00;99.90;;;;;;4995684;28;20042;-82
2022/03/05 08:30:20;;;;;;;14.18;8.02;;;2.20;99.90;;;;;;4996043;28;20060;-84
2022/03/05 08:32:46;;;;;;;14.57;8.00;;;2.30;99.90;;;;;;4995572;28;20581;-83
2022/03/05 08:35:13;;;;;;;17.92;8.80;;;2.40;99.90;;;;;;4995720;28;20050;-83
2022/03/05 08:37:40;;;;;;;14.50;8.55;;;2.50;99.90;;;;;;4995491;28;20066;-85
2022/03/05 08:40:08;;;;;;;13.85;8.23;;;2.60;99.90;;;;;;4995635;28;20137;-85
2022/03/05 08:42:34;;;;;;;14.73;8.10;;;2.70;99.90;;;;;;4995801;28;20140;-85
2022/03/05 08:45:01;;;;;;;15.05;8.63;;;2.80;99.90;;;;;;4995143;28;20050;-85
2022/03/05 08:47:26;;;;;;;15.55;8.93;;;2.90;99.90;;;;;;4995656;28;20485;-85
2022/03/05 08:49:52;;;;;;;17.63;8.85;;;3.00;99.90;;;;;;4996112;28;20049;-86
2022/03/05 08:52:18;;;;;;;17.63;8.52;;;3.00;99.90;;;;;;4995466;28;20101;-85
2022/03/05 08:54:44;;;;;;;18.05;9.45;;;3.00;99.90;;;;;;4995202;28;20056;-85
2022/03/05 08:57:11;;;;;;;16.15;8.40;;;3.10;99.90;;;;;;4997752;28;20046;-85
2022/03/05 08:59:37;;;;;;;13.50;7.28;;;3.20;99.90;;;;;;4999116;28;20045;-85
2022/03/05 09:02:03;;;;;;;14.48;8.02;;;3.30;99.90;;;;;;4998958;28;20413;-86
2022/03/05 09:04:29;;;;;;;16.17;7.70;;;3.50;99.90;;;;;;4998799;28;20966;-85
2022/03/05 09:06:54;;;;;;;16.77;8.23;;;3.60;99.90;;;;;;5016645;28;20493;-86
2022/03/05 09:09:20;;;;;;;18.45;8.48;;;3.70;99.90;;;;;;4999200;28;20045;-86
2022/03/05 09:11:46;;;;;;;16.95;8.90;;;3.80;99.90;;;;;;4999571;28;20114;-86
2022/03/05 09:14:11;;;;;;;12.07;7.35;;;3.80;99.90;;;;;;4999568;28;20077;-86
2022/03/05 09:16:39;;;;;;;15.43;8.52;;;3.80;99.90;;;;;;4998967;28;20049;-86
2022/03/05 09:19:05;;;;;;;14.48;8.48;;;3.80;99.90;;;;;;4998898;28;20049;-86
2022/03/05 09:21:32;;;;;;;15.27;8.40;;;3.90;99.90;;;;;;4998983;28;20038;-86
2022/03/05 09:23:57;;;;;;;18.38;9.95;;;3.90;99.90;;;;;;4998980;28;20564;-86
2022/03/05 09:26:23;;;;;;;15.02;8.68;;;4.00;99.90;;;;;;5015953;28;20050;-86
2022/03/05 09:28:50;;;;;;;14.43;7.28;;;4.00;99.90;;;;;;4998819;28;20037;-86
2022/03/05 09:31:16;;;;;;;12.68;7.32;;;4.00;99.90;;;;;;4998947;28;20041;-83
2022/03/05 09:33:42;;;;;;;17.42;9.15;;;4.10;99.90;;;;;;4998622;28;20042;-85
2022/03/05 09:36:09;;;;;;;15.50;8.18;;;4.30;99.90;;;;;;4998341;28;20145;-83
2022/03/05 09:38:36;;;;;;;14.45;9.13;;;4.40;99.90;;;;;;5014745;28;20111;-96
2022/03/05 09:41:06;;;;;;;12.45;7.57;;;4.30;99.90;;;;;;5005727;28;20496;-90
2022/03/05 09:43:35;;;;;;;15.32;7.57;;;4.50;99.90;;;;;;5006712;28;20050;-93
2022/03/05 09:46:02;;;;;;;12.60;7.68;;;4.60;99.90;;;;;;4999841;28;20046;-92
2022/03/05 09:48:29;;;;;;;14.80;8.20;;;4.80;99.90;;;;;;5006585;28;20120;-83
2022/03/05 09:50:55;;;;;;;13.65;8.05;;;4.90;99.90;;;;;;5015985;28;20048;-91
2022/03/05 09:53:28;;;;;;;13.48;6.90;;;5.00;99.90;;;;;;4999695;28;20050;-93
2022/03/05 09:58:29;;;;;;;13.50;7.18;;;5.00;99.90;;;;;;5357419;22;20049;-95
2022/03/05 10:00:55;;;;;;;11.88;6.80;;;5.10;99.90;;;;;;4986450;28;20050;-96
2022/03/05 10:03:22;;;;;;;12.38;6.25;;;5.10;99.90;;;;;;4999698;28;20140;-88
2022/03/05 10:05:48;;;;;;;13.30;7.05;;;5.20;99.90;;;;;;4997998;28;20416;-89
2022/03/05 10:08:16;;;;;;;13.07;7.03;;;5.30;99.90;;;;;;4998247;28;20105;-89
2022/03/05 10:10:45;;;;;;;13.40;7.18;;;5.40;99.90;;;;;;5000097;28;20180;-91
2022/03/05 10:13:22;;;;;;;12.85;6.80;;;5.40;99.90;;;;;;4999889;28;20046;-93
2022/03/05 10:15:49;;;;;;;12.73;7.00;;;5.40;99.90;;;;;;4999905;28;20042;-91
2022/03/05 10:18:15;;;;;;;11.48;6.30;;;5.40;99.90;;;;;;4999419;28;20081;-85
2022/03/05 10:20:52;;;;;;;12.63;6.63;;;5.50;99.90;;;;;;4998109;28;20081;-88
2022/03/05 10:23:20;;;;;;;11.13;6.88;;;5.60;99.90;;;;;;4999807;28;20085;-93
2022/03/05 10:25:50;;;;;;;11.65;6.40;;;5.70;99.90;;;;;;4998382;28;20065;-87
2022/03/05 10:28:20;;;;;;;10.40;6.00;;;5.80;99.90;;;;;;4998015;28;20046;-89
2022/03/05 10:30:55;;;;;;;10.88;6.47;;;5.90;99.90;;;;;;4997587;28;20050;-88
2022/03/05 10:33:40;;;;;;;12.13;5.97;;;6.00;99.90;;;;;;5015470;28;20050;-88
2022/03/05 10:36:09;;;;;;;13.60;6.35;;;6.10;99.90;;;;;;4997623;28;20574;-90
2022/03/05 10:38:48;;;;;;;11.20;5.82;;;6.10;99.90;;;;;;4998215;28;20046;-88
2022/03/05 10:41:17;;;;;;;11.27;6.30;;;6.10;99.90;;;;;;4998267;28;20137;-83
2022/03/05 10:43:47;;;;;;;13.48;6.60;;;6.20;99.90;;;;;;4997334;28;20049;-83
2022/03/05 10:46:13;;;;;;;16.17;7.97;;;6.10;99.90;;;;;;4997255;28;20050;-84
2022/03/05 10:48:42;;;;;;;14.02;7.00;;;6.20;99.90;;;;;;4997344;28;20088;-82
2022/03/05 10:51:17;;;;;;;13.73;7.07;;;6.10;99.90;;;;;;4997326;28;20046;-83
2022/03/05 10:53:48;;;;;;;12.77;6.53;;;6.30;99.90;;;;;;4997411;28;20132;-82
2022/03/05 10:56:31;;;;;;;11.00;6.80;;;6.40;99.90;;;;;;4997313;28;20478;-82
2022/03/05 10:59:07;;;;;;;13.82;8.00;;;6.30;99.90;;;;;;4997200;28;20049;-82
2022/03/05 11:01:34;;;;;;;13.75;7.82;;;6.20;99.90;;;;;;4996915;28;20049;-82
2022/03/05 11:04:00;;;;;;;14.57;7.63;;;6.30;99.90;;;;;;4996961;28;20046;-82
2022/03/05 11:06:27;;;;;;;11.95;6.72;;;6.40;99.90;;;;;;4996907;28;20049;-82
2022/03/05 11:08:53;;;;;;;12.15;7.88;;;6.40;99.90;;;;;;4996815;28;20042;-84
2022/03/05 11:11:20;;;;;;;15.13;7.95;;;6.60;99.90;;;;;;4996750;28;20497;-83
2022/03/05 11:13:46;;;;;;;14.65;7.72;;;6.60;99.90;;;;;;4996737;28;20195;-83
2022/03/05 11:16:12;;;;;;;13.82;7.65;;;6.60;99.90;;;;;;4996678;28;20045;-81
2022/03/05 11:18:41;;;;;;;16.00;8.02;;;6.80;99.90;;;;;;4996292;28;20516;-81
2022/03/05 11:21:08;;;;;;;13.52;7.82;;;6.70;99.90;;;;;;4996944;28;20046;-81
2022/03/05 11:23:36;;;;;;;12.85;7.25;;;6.80;99.90;;;;;;4996758;28;20100;-82
2022/03/05 11:26:02;;;;;;;13.70;7.40;;;6.60;99.90;;;;;;4996975;28;20053;-82
2022/03/05 11:28:36;;;;;;;12.32;7.28;;;6.40;99.90;;;;;;4996577;28;20046;-81
2022/03/05 11:31:32;;;;;;;14.65;7.70;;;6.50;99.90;;;;;;4996519;28;20045;-81
2022/03/05 11:34:23;;;;;;;12.10;7.10;;;6.50;99.90;;;;;;4992740;28;20065;-82
2022/03/05 11:36:52;;;;;;;14.85;7.25;;;6.90;99.90;;;;;;4996434;28;20125;-82
2022/03/05 11:39:23;;;;;;;12.40;7.38;;;6.90;99.90;;;;;;4996385;28;20125;-82
2022/03/05 11:42:03;;;;;;;13.15;7.88;;;6.80;99.90;;;;;;4996374;28;20046;-82
2022/03/05 11:44:44;;;;;;;15.73;7.70;;;6.90;99.90;;;;;;4996276;28;20042;-82
2022/03/05 11:47:19;;;;;;;14.05;8.15;;;7.10;99.90;;;;;;4996334;28;20061;-86
2022/03/05 11:49:55;;;;;;;12.07;7.03;;;7.10;99.90;;;;;;4997435;28;20097;-93
2022/03/05 11:52:21;;;;;;;13.32;7.68;;;7.10;99.90;;;;;;4996416;28;20053;-94
2022/03/05 11:55:19;;;;;;;12.75;7.47;;;7.20;99.90;;;;;;5000314;28;20519;-94
2022/03/05 11:57:51;;;;;;;12.48;7.80;;;6.90;99.90;;;;;;4997476;28;20045;-95
2022/03/05 12:00:28;;;;;;;13.80;7.88;;;7.20;99.90;;;;;;4997397;28;20490;-89
2022/03/05 12:02:55;;;;;;;13.50;7.93;;;7.20;99.90;;;;;;4996528;28;20037;-90
2022/03/05 12:05:36;;;;;;;14.63;8.57;;;7.20;99.90;;;;;;5000714;28;20045;-91
2022/03/05 12:08:03;;;;;;;17.08;7.70;;;7.20;99.90;;;;;;4996297;28;20516;-88
2022/03/05 12:10:29;;;;;;;14.13;8.52;;;7.10;99.90;;;;;;4996506;28;20493;-89
2022/03/05 12:13:00;;;;;;;13.00;7.82;;;7.10;99.90;;;;;;4998384;28;20052;-94
2022/03/05 12:15:34;;;;;;;13.98;8.05;;;7.30;99.90;;;;;;4996682;28;20477;-86
2022/03/05 12:18:02;;;;;;;15.25;7.68;;;7.30;99.90;;;;;;4995899;28;20405;-86
2022/03/05 12:20:34;;;;;;;14.23;8.23;;;7.50;99.90;;;;;;4995828;28;20555;-86
2022/03/05 12:23:09;;;;;;;16.25;8.13;;;7.50;99.90;;;;;;4996077;28;20046;-87
2022/03/05 12:25:40;;;;;;;16.88;8.27;;;7.60;99.90;;;;;;5013693;28;20050;-91
2022/03/05 12:28:16;;;;;;;12.38;7.05;;;7.40;99.90;;;;;;4995938;28;20038;-91
2022/03/05 12:30:42;;;;;;;14.05;7.95;;;7.20;99.90;;;;;;4997750;28;20196;-89
2022/03/05 12:33:14;;;;;;;12.95;7.00;;;7.30;99.90;;;;;;4999732;28;20498;-89
2022/03/05 12:35:41;;;;;;;14.27;8.50;;;7.30;99.90;;;;;;5000426;28;20060;-88
2022/03/05 12:38:08;;;;;;;15.93;8.52;;;7.20;99.90;;;;;;5000772;28;20050;-92
2022/03/05 12:40:34;;;;;;;12.93;7.38;;;7.30;99.90;;;;;;5000764;28;20042;-93
2022/03/05 12:43:03;;;;;;;12.48;6.97;;;7.40;99.90;;;;;;5000121;28;20050;-92
2022/03/05 12:45:31;;;;;;;13.65;7.65;;;7.40;99.90;;;;;;4999967;28;20089;-89